sensor_id;sensor_type;location;lat;lon;timestamp;temperature;humidity
23568;DHT22;11962;50.838;4.430;2023-04-25T00:01:37;11.20;99.90
23568;DHT22;11962;50.838;4.430;2023-04-25T00:04:04;11.10;99.90
23568;DHT22;11962;50.838;4.430;2023-04-25T00:06:32;11.10;99.90
23568;DHT22;11962;50.838;4.430;2023-04-25T00:08:57;11.10;99.90
23568;DHT22;11962;50.838;4.430;2023-04-25T00:11:24;11.10;99.90
23568;DHT22;11962;50.838;4.430;2023-04-25T00:13:50;11.10;99.90
23568;DHT22;11962;50.838;4.430;2023-04-25T00:16:19;11.10;99.90
23568;DHT22;11962;50.838;4.430;2023-04-25T00:18:45;11.10;99.90
23568;DHT22;11962;50.838;4.430;2023-04-25T00:21:20;11.10;99.90
23568;DHT22;11962;50.838;4.430;2023-04-25T00:23:46;11.10;99.90
23568;DHT22;11962;50.838;4.430;2023-04-25T00:26:12;11.00;99.90
23568;DHT22;11962;50.838;4.430;2023-04-25T00:28:38;11.00;99.90
23568;DHT22;11962;50.838;4.430;2023-04-25T00:31:04;11.00;99.90
23568;DHT22;11962;50.838;4.430;2023-04-25T00:33:30;11.00;99.90
23568;DHT22;11962;50.838;4.430;2023-04-25T00:35:56;11.00;99.90
23568;DHT22;11962;50.838;4.430;2023-04-25T00:38:22;11.00;99.90
23568;DHT22;11962;50.838;4.430;2023-04-25T00:40:48;11.00;99.90
23568;DHT22;11962;50.838;4.430;2023-04-25T00:43:14;11.00;99.90
23568;DHT22;11962;50.838;4.430;2023-04-25T00:45:40;11.00;99.90
23568;DHT22;11962;50.838;4.430;2023-04-25T00:51:21;11.00;99.90
23568;DHT22;11962;50.838;4.430;2023-04-25T00:53:49;11.00;99.90
23568;DHT22;11962;50.838;4.430;2023-04-25T00:56:15;11.00;99.90
23568;DHT22;11962;50.838;4.430;2023-04-25T00:58:41;11.00;99.90
23568;DHT22;11962;50.838;4.430;2023-04-25T01:01:08;10.90;99.90
23568;DHT22;11962;50.838;4.430;2023-04-25T01:03:38;10.90;99.90
23568;DHT22;11962;50.838;4.430;2023-04-25T01:06:08;10.90;99.90
23568;DHT22;11962;50.838;4.430;2023-04-25T01:08:34;10.90;99.90
23568;DHT22;11962;50.838;4.430;2023-04-25T01:11:01;10.90;99.90
23568;DHT22;11962;50.838;4.430;2023-04-25T01:13:27;10.90;99.90
23568;DHT22;11962;50.838;4.430;2023-04-25T01:15:52;10.90;99.90
23568;DHT22;11962;50.838;4.430;2023-04-25T01:18:19;10.90;99.90
23568;DHT22;11962;50.838;4.430;2023-04-25T01:20:46;10.90;99.90
23568;DHT22;11962;50.838;4.430;2023-04-25T01:23:13;10.90;99.90
23568;DHT22;11962;50.838;4.430;2023-04-25T01:25:39;10.90;99.90
23568;DHT22;11962;50.838;4.430;2023-04-25T01:28:05;10.90;99.90
23568;DHT22;11962;50.838;4.430;2023-04-25T01:30:31;10.90;99.90
23568;DHT22;11962;50.838;4.430;2023-04-25T01:32:57;10.80;99.90
23568;DHT22;11962;50.838;4.430;2023-04-25T01:35:24;10.90;99.90
23568;DHT22;11962;50.838;4.430;2023-04-25T01:37:51;10.80;99.90
23568;DHT22;11962;50.838;4.430;2023-04-25T01:40:17;10.90;99.90
23568;DHT22;11962;50.838;4.430;2023-04-25T01:42:44;10.90;99.90
23568;DHT22;11962;50.838;4.430;2023-04-25T01:45:11;10.80;99.90
23568;DHT22;11962;50.838;4.430;2023-04-25T01:47:38;10.80;99.90
23568;DHT22;11962;50.838;4.430;2023-04-25T01:50:07;10.80;99.90
23568;DHT22;11962;50.838;4.430;2023-04-25T01:52:33;10.80;99.90
23568;DHT22;11962;50.838;4.430;2023-04-25T01:55:01;10.80;99.90
23568;DHT22;11962;50.838;4.430;2023-04-25T01:57:26;10.70;99.90
23568;DHT22;11962;50.838;4.430;2023-04-25T01:59:59;10.70;99.90
23568;DHT22;11962;50.838;4.430;2023-04-25T02:02:25;10.60;99.90
23568;DHT22;11962;50.838;4.430;2023-04-25T02:04:51;10.50;99.90
23568;DHT22;11962;50.838;4.430;2023-04-25T02:07:17;10.50;99.90
23568;DHT22;11962;50.838;4.430;2023-04-25T02:09:43;10.50;99.90
23568;DHT22;11962;50.838;4.430;2023-04-25T02:12:10;10.50;99.90
23568;DHT22;11962;50.838;4.430;2023-04-25T02:14:36;10.50;99.90
23568;DHT22;11962;50.838;4.430;2023-04-25T02:17:02;10.50;99.90
23568;DHT22;11962;50.838;4.430;2023-04-25T02:19:27;10.50;99.90
23568;DHT22;11962;50.838;4.430;2023-04-25T02:21:54;10.50;99.90
23568;DHT22;11962;50.838;4.430;2023-04-25T02:24:19;10.40;99.90
23568;DHT22;11962;50.838;4.430;2023-04-25T02:26:45;10.40;99.90
23568;DHT22;11962;50.838;4.430;2023-04-25T02:29:12;10.30;99.90
23568;DHT22;11962;50.838;4.430;2023-04-25T02:31:38;10.30;99.90
23568;DHT22;11962;50.838;4.430;2023-04-25T02:34:04;10.30;99.90
23568;DHT22;11962;50.838;4.430;2023-04-25T02:36:30;10.30;99.90
23568;DHT22;11962;50.838;4.430;2023-04-25T02:39:00;10.30;99.90
23568;DHT22;11962;50.838;4.430;2023-04-25T02:41:26;10.30;99.90
23568;DHT22;11962;50.838;4.430;2023-04-25T02:43:52;10.30;99.90
23568;DHT22;11962;50.838;4.430;2023-04-25T02:46:18;10.30;99.90
23568;DHT22;11962;50.838;4.430;2023-04-25T02:48:43;10.30;99.90
23568;DHT22;11962;50.838;4.430;2023-04-25T02:51:09;10.40;99.90
23568;DHT22;11962;50.838;4.430;2023-04-25T02:53:35;10.30;99.90
23568;DHT22;11962;50.838;4.430;2023-04-25T02:56:01;10.30;99.90
23568;DHT22;11962;50.838;4.430;2023-04-25T02:58:27;10.30;99.90
23568;DHT22;11962;50.838;4.430;2023-04-25T03:00:53;10.30;99.90
23568;DHT22;11962;50.838;4.430;2023-04-25T03:03:20;10.30;99.90
23568;DHT22;11962;50.838;4.430;2023-04-25T03:05:49;10.30;99.90
23568;DHT22;11962;50.838;4.430;2023-04-25T03:08:16;10.30;99.90
23568;DHT22;11962;50.838;4.430;2023-04-25T03:10:42;10.30;99.90
23568;DHT22;11962;50.838;4.430;2023-04-25T03:13:08;10.30;99.90
23568;DHT22;11962;50.838;4.430;2023-04-25T03:15:35;10.30;99.90
23568;DHT22;11962;50.838;4.430;2023-04-25T03:18:01;10.40;99.90
23568;DHT22;11962;50.838;4.430;2023-04-25T03:20:26;10.30;99.90
23568;DHT22;11962;50.838;4.430;2023-04-25T03:22:53;10.30;99.90
23568;DHT22;11962;50.838;4.430;2023-04-25T03:25:18;10.30;99.90
23568;DHT22;11962;50.838;4.430;2023-04-25T03:27:44;10.30;99.90
23568;DHT22;11962;50.838;4.430;2023-04-25T03:30:10;10.30;99.90
23568;DHT22;11962;50.838;4.430;2023-04-25T03:32:36;10.30;99.90
23568;DHT22;11962;50.838;4.430;2023-04-25T03:35:02;10.20;99.90
23568;DHT22;11962;50.838;4.430;2023-04-25T03:37:28;10.20;99.90
23568;DHT22;11962;50.838;4.430;2023-04-25T03:39:54;10.20;99.90
23568;DHT22;11962;50.838;4.430;2023-04-25T03:42:20;10.20;99.90
23568;DHT22;11962;50.838;4.430;2023-04-25T03:44:48;10.20;99.90
23568;DHT22;11962;50.838;4.430;2023-04-25T03:47:15;10.10;99.90
23568;DHT22;11962;50.838;4.430;2023-04-25T03:49:41;10.10;99.90
23568;DHT22;11962;50.838;4.430;2023-04-25T03:52:07;10.10;99.90
23568;DHT22;11962;50.838;4.430;2023-04-25T03:54:33;10.10;99.90
23568;DHT22;11962;50.838;4.430;2023-04-25T03:56:59;10.10;99.90
23568;DHT22;11962;50.838;4.430;2023-04-25T03:59:25;10.10;99.90
23568;DHT22;11962;50.838;4.430;2023-04-25T04:01:52;10.00;99.90
23568;DHT22;11962;50.838;4.430;2023-04-25T04:04:17;10.00;99.90
23568;DHT22;11962;50.838;4.430;2023-04-25T04:06:44;10.00;99.90
23568;DHT22;11962;50.838;4.430;2023-04-25T04:09:10;10.00;99.90
23568;DHT22;11962;50.838;4.430;2023-04-25T04:11:37;9.90;99.90
23568;DHT22;11962;50.838;4.430;2023-04-25T04:14:05;9.80;99.90
23568;DHT22;11962;50.838;4.430;2023-04-25T04:16:31;9.80;99.90
23568;DHT22;11962;50.838;4.430;2023-04-25T04:18:57;9.80;99.90
23568;DHT22;11962;50.838;4.430;2023-04-25T04:21:23;9.80;99.90
23568;DHT22;11962;50.838;4.430;2023-04-25T04:23:49;9.80;99.90
23568;DHT22;11962;50.838;4.430;2023-04-25T04:26:15;9.70;99.90
23568;DHT22;11962;50.838;4.430;2023-04-25T04:28:43;9.70;99.90
23568;DHT22;11962;50.838;4.430;2023-04-25T04:31:10;9.70;99.90
23568;DHT22;11962;50.838;4.430;2023-04-25T04:33:36;9.70;99.90
23568;DHT22;11962;50.838;4.430;2023-04-25T04:36:03;9.80;99.90
23568;DHT22;11962;50.838;4.430;2023-04-25T04:38:29;9.80;99.90
23568;DHT22;11962;50.838;4.430;2023-04-25T04:40:55;9.80;99.90
23568;DHT22;11962;50.838;4.430;2023-04-25T04:43:21;9.80;99.90
23568;DHT22;11962;50.838;4.430;2023-04-25T04:45:48;9.80;99.90
23568;DHT22;11962;50.838;4.430;2023-04-25T04:48:16;9.80;99.90
23568;DHT22;11962;50.838;4.430;2023-04-25T04:50:44;9.80;99.90
23568;DHT22;11962;50.838;4.430;2023-04-25T04:53:11;9.80;99.90
23568;DHT22;11962;50.838;4.430;2023-04-25T04:55:37;9.90;99.90
23568;DHT22;11962;50.838;4.430;2023-04-25T04:58:03;9.90;99.90
23568;DHT22;11962;50.838;4.430;2023-04-25T05:00:29;9.90;99.90
23568;DHT22;11962;50.838;4.430;2023-04-25T05:02:56;9.90;99.90
23568;DHT22;11962;50.838;4.430;2023-04-25T05:05:22;9.90;99.90
23568;DHT22;11962;50.838;4.430;2023-04-25T05:07:47;10.00;99.90
23568;DHT22;11962;50.838;4.430;2023-04-25T05:10:13;10.00;99.90
23568;DHT22;11962;50.838;4.430;2023-04-25T05:12:39;10.00;99.90
23568;DHT22;11962;50.838;4.430;2023-04-25T05:15:05;10.00;99.90
23568;DHT22;11962;50.838;4.430;2023-04-25T05:17:31;10.00;99.90
23568;DHT22;11962;50.838;4.430;2023-04-25T05:19:58;10.00;99.90
23568;DHT22;11962;50.838;4.430;2023-04-25T05:22:24;9.90;99.90
23568;DHT22;11962;50.838;4.430;2023-04-25T05:24:49;9.90;99.90
23568;DHT22;11962;50.838;4.430;2023-04-25T05:27:17;9.90;99.90
23568;DHT22;11962;50.838;4.430;2023-04-25T05:29:43;9.90;99.90
23568;DHT22;11962;50.838;4.430;2023-04-25T05:32:09;9.90;99.90
23568;DHT22;11962;50.838;4.430;2023-04-25T05:34:35;9.90;99.90
23568;DHT22;11962;50.838;4.430;2023-04-25T05:37:02;9.80;99.90
23568;DHT22;11962;50.838;4.430;2023-04-25T05:39:28;9.80;99.90
23568;DHT22;11962;50.838;4.430;2023-04-25T05:41:54;9.80;99.90
23568;DHT22;11962;50.838;4.430;2023-04-25T05:44:23;9.90;99.90
23568;DHT22;11962;50.838;4.430;2023-04-25T05:46:52;9.90;99.90
23568;DHT22;11962;50.838;4.430;2023-04-25T05:49:18;9.90;99.90
23568;DHT22;11962;50.838;4.430;2023-04-25T05:51:44;10.00;99.90
23568;DHT22;11962;50.838;4.430;2023-04-25T05:54:09;10.00;99.90
23568;DHT22;11962;50.838;4.430;2023-04-25T05:56:35;10.10;99.90
23568;DHT22;11962;50.838;4.430;2023-04-25T05:59:01;10.10;99.90
23568;DHT22;11962;50.838;4.430;2023-04-25T06:01:27;10.20;99.90
23568;DHT22;11962;50.838;4.430;2023-04-25T06:03:52;10.20;99.90
23568;DHT22;11962;50.838;4.430;2023-04-25T06:06:19;10.30;99.90
23568;DHT22;11962;50.838;4.430;2023-04-25T06:08:44;10.30;99.90
23568;DHT22;11962;50.838;4.430;2023-04-25T06:11:11;10.40;99.90
23568;DHT22;11962;50.838;4.430;2023-04-25T06:13:37;10.40;99.90
23568;DHT22;11962;50.838;4.430;2023-04-25T06:16:03;10.50;99.90
23568;DHT22;11962;50.838;4.430;2023-04-25T06:18:29;10.50;99.90
23568;DHT22;11962;50.838;4.430;2023-04-25T06:20:54;10.60;99.90
23568;DHT22;11962;50.838;4.430;2023-04-25T06:23:20;10.70;99.90
23568;DHT22;11962;50.838;4.430;2023-04-25T06:25:46;10.70;99.90
23568;DHT22;11962;50.838;4.430;2023-04-25T06:28:12;10.90;99.90
23568;DHT22;11962;50.838;4.430;2023-04-25T06:30:38;11.00;99.90
23568;DHT22;11962;50.838;4.430;2023-04-25T06:33:04;11.10;99.90
23568;DHT22;11962;50.838;4.430;2023-04-25T06:35:29;11.20;99.90
23568;DHT22;11962;50.838;4.430;2023-04-25T06:37:55;11.30;99.90
23568;DHT22;11962;50.838;4.430;2023-04-25T06:40:21;11.40;99.90
23568;DHT22;11962;50.838;4.430;2023-04-25T06:42:47;11.60;99.90
23568;DHT22;11962;50.838;4.430;2023-04-25T06:45:12;11.70;99.90
23568;DHT22;11962;50.838;4.430;2023-04-25T06:47:38;11.80;99.90
23568;DHT22;11962;50.838;4.430;2023-04-25T06:50:04;11.80;99.90
23568;DHT22;11962;50.838;4.430;2023-04-25T06:52:31;11.80;99.90
23568;DHT22;11962;50.838;4.430;2023-04-25T06:54:57;11.90;99.90
23568;DHT22;11962;50.838;4.430;2023-04-25T06:57:23;12.00;99.90
23568;DHT22;11962;50.838;4.430;2023-04-25T06:59:49;12.20;99.90
23568;DHT22;11962;50.838;4.430;2023-04-25T07:02:14;12.30;99.90
23568;DHT22;11962;50.838;4.430;2023-04-25T07:04:40;12.30;99.90
23568;DHT22;11962;50.838;4.430;2023-04-25T07:07:06;12.30;99.90
23568;DHT22;11962;50.838;4.430;2023-04-25T07:09:32;12.30;99.90
23568;DHT22;11962;50.838;4.430;2023-04-25T07:11:59;12.20;99.90
23568;DHT22;11962;50.838;4.430;2023-04-25T07:14:27;12.00;99.90
23568;DHT22;11962;50.838;4.430;2023-04-25T07:16:53;12.00;99.90
23568;DHT22;11962;50.838;4.430;2023-04-25T07:19:21;12.00;99.90
23568;DHT22;11962;50.838;4.430;2023-04-25T07:21:47;12.20;99.90
23568;DHT22;11962;50.838;4.430;2023-04-25T07:24:13;12.30;99.90
23568;DHT22;11962;50.838;4.430;2023-04-25T07:26:38;12.30;99.90
23568;DHT22;11962;50.838;4.430;2023-04-25T07:29:04;12.30;99.90
23568;DHT22;11962;50.838;4.430;2023-04-25T07:31:30;12.20;99.90
23568;DHT22;11962;50.838;4.430;2023-04-25T07:33:56;12.20;99.90
23568;DHT22;11962;50.838;4.430;2023-04-25T07:36:22;12.20;99.90
23568;DHT22;11962;50.838;4.430;2023-04-25T07:38:47;12.30;99.90
23568;DHT22;11962;50.838;4.430;2023-04-25T07:41:13;12.50;99.90
23568;DHT22;11962;50.838;4.430;2023-04-25T07:43:39;12.70;99.90
23568;DHT22;11962;50.838;4.430;2023-04-25T07:46:05;13.00;99.90
23568;DHT22;11962;50.838;4.430;2023-04-25T07:48:31;13.30;99.90
23568;DHT22;11962;50.838;4.430;2023-04-25T07:50:57;13.80;99.90
23568;DHT22;11962;50.838;4.430;2023-04-25T07:53:23;14.10;99.90
23568;DHT22;11962;50.838;4.430;2023-04-25T07:55:49;14.30;99.90
23568;DHT22;11962;50.838;4.430;2023-04-25T07:58:15;14.50;99.90
23568;DHT22;11962;50.838;4.430;2023-04-25T08:00:46;14.80;99.90
23568;DHT22;11962;50.838;4.430;2023-04-25T08:03:12;14.90;99.90
23568;DHT22;11962;50.838;4.430;2023-04-25T08:05:38;15.00;99.60
23568;DHT22;11962;50.838;4.430;2023-04-25T08:08:04;15.20;98.50
23568;DHT22;11962;50.838;4.430;2023-04-25T08:10:32;15.20;97.90
23568;DHT22;11962;50.838;4.430;2023-04-25T08:12:58;15.40;97.50
23568;DHT22;11962;50.838;4.430;2023-04-25T08:15:24;15.50;97.10
23568;DHT22;11962;50.838;4.430;2023-04-25T08:17:52;15.50;96.80
23568;DHT22;11962;50.838;4.430;2023-04-25T08:20:18;15.60;96.50
23568;DHT22;11962;50.838;4.430;2023-04-25T08:22:43;15.80;96.00
23568;DHT22;11962;50.838;4.430;2023-04-25T08:25:09;15.90;94.90
23568;DHT22;11962;50.838;4.430;2023-04-25T08:27:35;16.20;94.70
23568;DHT22;11962;50.838;4.430;2023-04-25T08:30:03;16.50;93.60
23568;DHT22;11962;50.838;4.430;2023-04-25T08:32:29;16.90;93.00
23568;DHT22;11962;50.838;4.430;2023-04-25T08:34:55;17.40;92.20
23568;DHT22;11962;50.838;4.430;2023-04-25T08:37:21;17.50;91.00
23568;DHT22;11962;50.838;4.430;2023-04-25T08:39:47;17.40;90.50
23568;DHT22;11962;50.838;4.430;2023-04-25T08:42:19;17.40;89.80
23568;DHT22;11962;50.838;4.430;2023-04-25T08:44:48;17.90;88.60
23568;DHT22;11962;50.838;4.430;2023-04-25T08:47:14;19.70;85.40
23568;DHT22;11962;50.838;4.430;2023-04-25T08:49:44;22.20;78.30
23568;DHT22;11962;50.838;4.430;2023-04-25T08:52:12;24.90;67.10
23568;DHT22;11962;50.838;4.430;2023-04-25T08:54:42;27.70;57.70
23568;DHT22;11962;50.838;4.430;2023-04-25T08:57:10;28.10;52.40
23568;DHT22;11962;50.838;4.430;2023-04-25T08:59:37;27.50;50.90
23568;DHT22;11962;50.838;4.430;2023-04-25T09:02:05;26.00;51.80
23568;DHT22;11962;50.838;4.430;2023-04-25T09:04:34;24.20;53.90
23568;DHT22;11962;50.838;4.430;2023-04-25T09:07:00;22.80;56.30
23568;DHT22;11962;50.838;4.430;2023-04-25T09:09:26;21.60;58.20
23568;DHT22;11962;50.838;4.430;2023-04-25T09:11:54;20.50;60.00
23568;DHT22;11962;50.838;4.430;2023-04-25T09:14:21;19.70;63.10
23568;DHT22;11962;50.838;4.430;2023-04-25T09:19:23;19.30;65.60
23568;DHT22;11962;50.838;4.430;2023-04-25T09:21:49;19.50;65.00
23568;DHT22;11962;50.838;4.430;2023-04-25T09:24:15;19.70;63.00
23568;DHT22;11962;50.838;4.430;2023-04-25T09:26:41;19.40;62.50
23568;DHT22;11962;50.838;4.430;2023-04-25T09:29:07;19.00;63.30
23568;DHT22;11962;50.838;4.430;2023-04-25T09:31:33;18.40;64.00
23568;DHT22;11962;50.838;4.430;2023-04-25T09:34:00;17.60;65.80
23568;DHT22;11962;50.838;4.430;2023-04-25T09:36:30;16.80;68.10
23568;DHT22;11962;50.838;4.430;2023-04-25T09:38:56;16.30;70.30
23568;DHT22;11962;50.838;4.430;2023-04-25T09:41:25;16.00;71.60
23568;DHT22;11962;50.838;4.430;2023-04-25T09:43:51;15.80;73.30
23568;DHT22;11962;50.838;4.430;2023-04-25T09:46:17;15.80;71.90
23568;DHT22;11962;50.838;4.430;2023-04-25T09:48:50;15.90;72.10
23568;DHT22;11962;50.838;4.430;2023-04-25T09:51:19;16.40;71.80
23568;DHT22;11962;50.838;4.430;2023-04-25T09:53:45;17.40;71.10
23568;DHT22;11962;50.838;4.430;2023-04-25T09:56:12;19.70;66.10
23568;DHT22;11962;50.838;4.430;2023-04-25T09:58:40;22.60;60.40
23568;DHT22;11962;50.838;4.430;2023-04-25T10:01:09;23.10;57.10
23568;DHT22;11962;50.838;4.430;2023-04-25T10:03:38;23.80;56.60
23568;DHT22;11962;50.838;4.430;2023-04-25T10:06:12;25.40;53.80
23568;DHT22;11962;50.838;4.430;2023-04-25T10:08:40;25.70;52.30
23568;DHT22;11962;50.838;4.430;2023-04-25T10:11:10;24.70;53.20
23568;DHT22;11962;50.838;4.430;2023-04-25T10:13:36;23.00;54.40
23568;DHT22;11962;50.838;4.430;2023-04-25T10:16:04;21.70;56.80
23568;DHT22;11962;50.838;4.430;2023-04-25T10:18:31;22.20;57.00
23568;DHT22;11962;50.838;4.430;2023-04-25T10:21:02;24.50;53.50
23568;DHT22;11962;50.838;4.430;2023-04-25T10:23:30;27.20;50.10
23568;DHT22;11962;50.838;4.430;2023-04-25T10:25:57;29.60;46.70
23568;DHT22;11962;50.838;4.430;2023-04-25T10:28:23;31.50;43.20
23568;DHT22;11962;50.838;4.430;2023-04-25T10:31:01;33.00;40.00
23568;DHT22;11962;50.838;4.430;2023-04-25T10:36:14;32.70;37.80
23568;DHT22;11962;50.838;4.430;2023-04-25T10:38:42;30.30;38.00
23568;DHT22;11962;50.838;4.430;2023-04-25T10:41:10;28.30;39.60
23568;DHT22;11962;50.838;4.430;2023-04-25T10:43:45;27.00;41.20
23568;DHT22;11962;50.838;4.430;2023-04-25T10:46:28;27.60;41.50
23568;DHT22;11962;50.838;4.430;2023-04-25T10:48:59;29.00;40.90
23568;DHT22;11962;50.838;4.430;2023-04-25T10:51:32;29.00;39.30
23568;DHT22;11962;50.838;4.430;2023-04-25T10:54:01;28.10;38.90
23568;DHT22;11962;50.838;4.430;2023-04-25T10:56:31;26.70;39.60
23568;DHT22;11962;50.838;4.430;2023-04-25T10:59:18;26.10;40.60
23568;DHT22;11962;50.838;4.430;2023-04-25T11:01:52;25.70;41.60
23568;DHT22;11962;50.838;4.430;2023-04-25T11:04:22;25.90;42.40
23568;DHT22;11962;50.838;4.430;2023-04-25T11:09:37;27.50;40.10
23568;DHT22;11962;50.838;4.430;2023-04-25T11:12:04;26.60;40.70
23568;DHT22;11962;50.838;4.430;2023-04-25T11:14:30;25.60;42.00
23568;DHT22;11962;50.838;4.430;2023-04-25T11:16:57;24.30;44.50
23568;DHT22;11962;50.838;4.430;2023-04-25T11:19:24;22.60;48.30
23568;DHT22;11962;50.838;4.430;2023-04-25T11:21:50;21.20;51.40
23568;DHT22;11962;50.838;4.430;2023-04-25T11:24:21;20.00;53.60
23568;DHT22;11962;50.838;4.430;2023-04-25T11:26:50;19.20;55.90
23568;DHT22;11962;50.838;4.430;2023-04-25T11:29:17;18.50;57.60
23568;DHT22;11962;50.838;4.430;2023-04-25T11:31:45;18.20;58.10
23568;DHT22;11962;50.838;4.430;2023-04-25T11:34:11;18.10;57.90
23568;DHT22;11962;50.838;4.430;2023-04-25T11:36:38;18.20;57.80
23568;DHT22;11962;50.838;4.430;2023-04-25T11:39:04;18.60;57.50
23568;DHT22;11962;50.838;4.430;2023-04-25T11:41:31;18.90;57.00
23568;DHT22;11962;50.838;4.430;2023-04-25T11:43:57;19.00;56.70
23568;DHT22;11962;50.838;4.430;2023-04-25T11:46:23;19.10;57.00
23568;DHT22;11962;50.838;4.430;2023-04-25T11:48:49;19.40;57.20
23568;DHT22;11962;50.838;4.430;2023-04-25T11:51:15;19.60;57.00
23568;DHT22;11962;50.838;4.430;2023-04-25T11:53:44;19.50;57.40
23568;DHT22;11962;50.838;4.430;2023-04-25T11:56:10;19.50;57.70
23568;DHT22;11962;50.838;4.430;2023-04-25T12:03:58;20.50;55.30
23568;DHT22;11962;50.838;4.430;2023-04-25T12:06:30;20.30;53.70
23568;DHT22;11962;50.838;4.430;2023-04-25T12:09:10;20.20;54.40
23568;DHT22;11962;50.838;4.430;2023-04-25T12:12:02;20.20;54.80
23568;DHT22;11962;50.838;4.430;2023-04-25T12:14:34;20.10;54.00
23568;DHT22;11962;50.838;4.430;2023-04-25T12:17:03;20.10;53.80
23568;DHT22;11962;50.838;4.430;2023-04-25T12:19:37;20.10;53.30
23568;DHT22;11962;50.838;4.430;2023-04-25T12:22:22;20.40;53.70
23568;DHT22;11962;50.838;4.430;2023-04-25T12:24:48;20.50;53.60
23568;DHT22;11962;50.838;4.430;2023-04-25T12:27:16;20.20;54.00
23568;DHT22;11962;50.838;4.430;2023-04-25T12:29:54;20.00;53.00
23568;DHT22;11962;50.838;4.430;2023-04-25T12:32:21;19.90;52.40
23568;DHT22;11962;50.838;4.430;2023-04-25T12:34:47;19.70;51.70
23568;DHT22;11962;50.838;4.430;2023-04-25T12:37:13;19.60;52.20
23568;DHT22;11962;50.838;4.430;2023-04-25T12:39:38;19.50;51.80
23568;DHT22;11962;50.838;4.430;2023-04-25T12:42:05;19.50;51.40
23568;DHT22;11962;50.838;4.430;2023-04-25T12:44:33;19.30;51.70
23568;DHT22;11962;50.838;4.430;2023-04-25T12:46:59;19.30;52.20
23568;DHT22;11962;50.838;4.430;2023-04-25T12:49:25;19.20;51.70
23568;DHT22;11962;50.838;4.430;2023-04-25T12:51:51;19.20;51.80
23568;DHT22;11962;50.838;4.430;2023-04-25T12:54:17;19.30;51.40
23568;DHT22;11962;50.838;4.430;2023-04-25T12:56:43;19.40;51.40
23568;DHT22;11962;50.838;4.430;2023-04-25T12:59:09;19.50;51.70
23568;DHT22;11962;50.838;4.430;2023-04-25T13:01:35;19.40;51.50
23568;DHT22;11962;50.838;4.430;2023-04-25T13:04:00;19.10;51.80
23568;DHT22;11962;50.838;4.430;2023-04-25T13:06:26;18.50;53.20
23568;DHT22;11962;50.838;4.430;2023-04-25T13:08:52;18.20;55.10
23568;DHT22;11962;50.838;4.430;2023-04-25T13:11:18;17.80;56.40
23568;DHT22;11962;50.838;4.430;2023-04-25T13:13:44;17.50;57.60
23568;DHT22;11962;50.838;4.430;2023-04-25T13:16:10;17.40;58.50
23568;DHT22;11962;50.838;4.430;2023-04-25T13:18:36;17.40;58.60
23568;DHT22;11962;50.838;4.430;2023-04-25T13:21:02;17.50;58.80
23568;DHT22;11962;50.838;4.430;2023-04-25T13:23:29;17.70;59.10
23568;DHT22;11962;50.838;4.430;2023-04-25T13:25:55;17.90;57.90
23568;DHT22;11962;50.838;4.430;2023-04-25T13:28:23;17.80;58.30
23568;DHT22;11962;50.838;4.430;2023-04-25T13:30:49;17.60;58.30
23568;DHT22;11962;50.838;4.430;2023-04-25T13:33:15;17.40;58.50
23568;DHT22;11962;50.838;4.430;2023-04-25T13:35:42;17.20;58.70
23568;DHT22;11962;50.838;4.430;2023-04-25T13:38:08;17.10;59.20
23568;DHT22;11962;50.838;4.430;2023-04-25T13:40:34;17.10;58.40
23568;DHT22;11962;50.838;4.430;2023-04-25T13:43:01;17.20;57.40
23568;DHT22;11962;50.838;4.430;2023-04-25T13:45:27;17.20;57.20
23568;DHT22;11962;50.838;4.430;2023-04-25T13:47:53;17.10;56.50
23568;DHT22;11962;50.838;4.430;2023-04-25T13:50:19;17.00;57.40
23568;DHT22;11962;50.838;4.430;2023-04-25T13:52:45;16.80;56.00
23568;DHT22;11962;50.838;4.430;2023-04-25T13:55:11;16.70;55.00
23568;DHT22;11962;50.838;4.430;2023-04-25T13:57:37;16.80;54.80
23568;DHT22;11962;50.838;4.430;2023-04-25T14:00:05;16.90;54.50
23568;DHT22;11962;50.838;4.430;2023-04-25T14:02:37;17.00;55.30
23568;DHT22;11962;50.838;4.430;2023-04-25T14:05:04;17.20;57.60
23568;DHT22;11962;50.838;4.430;2023-04-25T14:07:30;17.20;58.10
23568;DHT22;11962;50.838;4.430;2023-04-25T14:09:57;17.10;58.80
23568;DHT22;11962;50.838;4.430;2023-04-25T14:12:23;17.00;59.10
23568;DHT22;11962;50.838;4.430;2023-04-25T14:14:49;16.90;59.20
23568;DHT22;11962;50.838;4.430;2023-04-25T14:17:15;17.00;59.90
23568;DHT22;11962;50.838;4.430;2023-04-25T14:19:41;16.90;59.40
23568;DHT22;11962;50.838;4.430;2023-04-25T14:22:10;16.70;59.20
23568;DHT22;11962;50.838;4.430;2023-04-25T14:24:36;16.60;58.60
23568;DHT22;11962;50.838;4.430;2023-04-25T14:27:02;16.50;58.40
23568;DHT22;11962;50.838;4.430;2023-04-25T14:29:29;16.40;57.50
23568;DHT22;11962;50.838;4.430;2023-04-25T14:31:55;16.40;57.60
23568;DHT22;11962;50.838;4.430;2023-04-25T14:34:23;16.20;57.20
23568;DHT22;11962;50.838;4.430;2023-04-25T14:36:49;16.10;57.40
23568;DHT22;11962;50.838;4.430;2023-04-25T14:39:15;16.10;57.60
23568;DHT22;11962;50.838;4.430;2023-04-25T14:41:42;16.00;57.80
23568;DHT22;11962;50.838;4.430;2023-04-25T14:44:07;16.00;58.30
23568;DHT22;11962;50.838;4.430;2023-04-25T14:46:33;15.90;57.80
23568;DHT22;11962;50.838;4.430;2023-04-25T14:48:59;15.90;58.20
23568;DHT22;11962;50.838;4.430;2023-04-25T14:51:25;16.00;57.80
23568;DHT22;11962;50.838;4.430;2023-04-25T14:53:52;16.10;58.50
23568;DHT22;11962;50.838;4.430;2023-04-25T14:56:18;16.10;59.10
23568;DHT22;11962;50.838;4.430;2023-04-25T14:58:44;16.10;59.20
23568;DHT22;11962;50.838;4.430;2023-04-25T15:01:11;16.10;59.30
23568;DHT22;11962;50.838;4.430;2023-04-25T15:03:39;16.10;59.20
23568;DHT22;11962;50.838;4.430;2023-04-25T15:06:05;16.00;59.30
23568;DHT22;11962;50.838;4.430;2023-04-25T15:08:31;16.00;59.50
23568;DHT22;11962;50.838;4.430;2023-04-25T15:10:58;16.00;59.60
23568;DHT22;11962;50.838;4.430;2023-04-25T15:13:28;16.10;59.50
23568;DHT22;11962;50.838;4.430;2023-04-25T15:15:54;16.20;59.60
23568;DHT22;11962;50.838;4.430;2023-04-25T15:18:21;16.40;59.50
23568;DHT22;11962;50.838;4.430;2023-04-25T15:20:48;16.60;56.50
23568;DHT22;11962;50.838;4.430;2023-04-25T15:23:14;16.60;55.50
23568;DHT22;11962;50.838;4.430;2023-04-25T15:25:40;16.70;55.00
23568;DHT22;11962;50.838;4.430;2023-04-25T15:28:06;16.70;55.40
23568;DHT22;11962;50.838;4.430;2023-04-25T15:30:31;16.80;55.70
23568;DHT22;11962;50.838;4.430;2023-04-25T15:32:57;16.60;55.60
23568;DHT22;11962;50.838;4.430;2023-04-25T15:35:23;16.50;56.20
23568;DHT22;11962;50.838;4.430;2023-04-25T15:37:49;16.50;56.20
23568;DHT22;11962;50.838;4.430;2023-04-25T15:40:16;16.50;56.40
23568;DHT22;11962;50.838;4.430;2023-04-25T15:42:48;16.60;56.20
23568;DHT22;11962;50.838;4.430;2023-04-25T15:45:16;16.50;55.70
23568;DHT22;11962;50.838;4.430;2023-04-25T15:47:43;16.50;55.80